PWSweather.com
Personal Weather Stations
Station Observations
CW4114
Near Downtown, Rogers City, MI 49779

Near DowntownRogers City, MI 49779

Lat: 45.417443, Lon: -83.810642

Elevation: 605

Station Type: Davis Vantage Pro2 w/Solar

Latest ConditionsUpdated 5:57:01 AM EST Thursday, Nov 23, 2017
Currently Today's Max Today's Min Today's Average
Temperature 28.6°F-1.9°C 29.5°F-1.4°C 27.0°F-2.8°C 28.2°F-2.1°C
Dew Point 23.7°F-4.6°C 23.7°F-4.6°C 21.0°F-6.1°C 22.0°F-5.6°C
Winds 4.3 mph S6.9 kmh S 6.7 mph SW10.8 kmh SW - 4.3 mph 6.9 kmh
Wind Gusts 9.6 mph15.4 kmh 12.8 mph20.6 kmh - -
Humidity 82% 83% 71% 77%
Pressure 29.99 in1015.6 mb 30.11 in1019.6 mb 29.99 in1015.6 mb -
Hour Temp Dew Point Humidity Winds Wind Gusts Pressure Precip Precip Rate Daily Precip Total
05:57 AM 28.6°F-1.9°C 23.7°F-4.6°C 82% 4.3 mph S6.9 kmh S 9.6 mph15.4 kmh 29.99 in1015.6 mb 0.00 in0.0 mm 0.00 in0.0 mm 0.00 in0.0 mm
05:52 AM 28.6°F-1.9°C 23.7°F-4.6°C 82% 4.9 mph WSW7.9 kmh WSW 9.6 mph15.4 kmh 29.99 in1015.6 mb 0.00 in0.0 mm 0.00 in0.0 mm 0.00 in0.0 mm
05:47 AM 28.4°F-2.0°C 23.5°F-4.7°C 82% 6.3 mph SW10.1 kmh SW 10.5 mph16.9 kmh 29.99 in1015.6 mb 0.00 in0.0 mm 0.00 in0.0 mm 0.00 in0.0 mm
05:42 AM 28.2°F-2.1°C 23.4°F-4.8°C 82% 4.9 mph SW7.9 kmh SW 8.5 mph13.7 kmh 30.00 in1015.9 mb 0.00 in0.0 mm 0.00 in0.0 mm 0.00 in0.0 mm
05:37 AM 28.2°F-2.1°C 23.4°F-4.8°C 82% 6.5 mph SSW10.5 kmh SSW 12.8 mph20.6 kmh 29.99 in1015.6 mb 0.00 in0.0 mm 0.00 in0.0 mm 0.00 in0.0 mm
05:32 AM 28.0°F-2.2°C 23.2°F-4.9°C 82% 4.5 mph S7.2 kmh S 8.5 mph13.7 kmh 30.00 in1015.9 mb 0.00 in0.0 mm 0.00 in0.0 mm 0.00 in0.0 mm
05:27 AM 27.9°F-2.3°C 23.0°F-5.0°C 82% 6.5 mph SW10.5 kmh SW 10.5 mph16.9 kmh 29.99 in1015.6 mb 0.00 in0.0 mm 0.00 in0.0 mm 0.00 in0.0 mm
05:22 AM 27.9°F-2.3°C 23.0°F-5.0°C 82% 4.5 mph WSW7.2 kmh WSW 9.6 mph15.4 kmh 30.00 in1015.9 mb 0.00 in0.0 mm 0.00 in0.0 mm 0.00 in0.0 mm
05:17 AM 27.7°F-2.4°C 22.8°F-5.1°C 82% 6.3 mph SSE10.1 kmh SSE 10.5 mph16.9 kmh 30.00 in1015.9 mb 0.00 in0.0 mm 0.00 in0.0 mm 0.00 in0.0 mm
05:12 AM 27.5°F-2.5°C 23.0°F-5.0°C 83% 4.5 mph SW7.2 kmh SW 7.4 mph11.9 kmh 30.00 in1015.9 mb 0.00 in0.0 mm 0.00 in0.0 mm 0.00 in0.0 mm
05:07 AM 27.3°F-2.6°C 22.8°F-5.1°C 83% 4.9 mph SW7.9 kmh SW 9.6 mph15.4 kmh 30.00 in1015.9 mb 0.00 in0.0 mm 0.00 in0.0 mm 0.00 in0.0 mm
05:02 AM 27.3°F-2.6°C 22.8°F-5.1°C 83% 3.8 mph SSW6.1 kmh SSW 9.6 mph15.4 kmh 30.00 in1015.9 mb 0.00 in0.0 mm 0.00 in0.0 mm 0.00 in0.0 mm
04:57 AM 27.1°F-2.7°C 22.6°F-5.2°C 83% 5.8 mph SSW9.3 kmh SSW 8.5 mph13.7 kmh 30.00 in1015.9 mb 0.00 in0.0 mm 0.00 in0.0 mm 0.00 in0.0 mm
04:51 AM 27.1°F-2.7°C 22.5°F-5.3°C 82% 5.4 mph S8.7 kmh S 9.6 mph15.4 kmh 30.00 in1015.9 mb 0.00 in0.0 mm 0.00 in0.0 mm 0.00 in0.0 mm
04:46 AM 27.1°F-2.7°C 22.5°F-5.3°C 82% 4.9 mph SW7.9 kmh SW 8.5 mph13.7 kmh 30.00 in1015.9 mb 0.00 in0.0 mm 0.00 in0.0 mm 0.00 in0.0 mm
04:41 AM 27.1°F-2.7°C 22.5°F-5.3°C 82% 5.8 mph WSW9.3 kmh WSW 9.6 mph15.4 kmh 30.01 in1016.3 mb 0.00 in0.0 mm 0.00 in0.0 mm 0.00 in0.0 mm
04:36 AM 27.1°F-2.7°C 22.5°F-5.3°C 82% 4.3 mph S6.9 kmh S 10.5 mph16.9 kmh 30.01 in1016.3 mb 0.00 in0.0 mm 0.00 in0.0 mm 0.00 in0.0 mm
04:31 AM 27.1°F-2.7°C 22.5°F-5.3°C 82% 4.9 mph S7.9 kmh S 10.5 mph16.9 kmh 30.01 in1016.3 mb 0.00 in0.0 mm 0.00 in0.0 mm 0.00 in0.0 mm
04:26 AM 27.1°F-2.7°C 22.5°F-5.3°C 82% 4.5 mph SW7.2 kmh SW 10.5 mph16.9 kmh 30.01 in1016.3 mb 0.00 in0.0 mm 0.00 in0.0 mm 0.00 in0.0 mm
04:21 AM 27.1°F-2.7°C 22.1°F-5.5°C 81% 5.4 mph SW8.7 kmh SW 8.5 mph13.7 kmh 30.01 in1016.3 mb 0.00 in0.0 mm 0.00 in0.0 mm 0.00 in0.0 mm
04:16 AM 27.1°F-2.7°C 22.1°F-5.5°C 81% 5.8 mph SSW9.3 kmh SSW 11.6 mph18.7 kmh 30.01 in1016.3 mb 0.00 in0.0 mm 0.00 in0.0 mm 0.00 in0.0 mm
04:11 AM 27.0°F-2.8°C 21.9°F-5.6°C 81% 4.5 mph WSW7.2 kmh WSW 7.4 mph11.9 kmh 30.02 in1016.6 mb 0.00 in0.0 mm 0.00 in0.0 mm 0.00 in0.0 mm
04:06 AM 27.0°F-2.8°C 21.9°F-5.6°C 81% 4.7 mph S7.6 kmh S 10.5 mph16.9 kmh 30.02 in1016.6 mb 0.00 in0.0 mm 0.00 in0.0 mm 0.00 in0.0 mm
04:01 AM 27.0°F-2.8°C 21.9°F-5.6°C 81% 5.4 mph SW8.7 kmh SW 7.4 mph11.9 kmh 30.02 in1016.6 mb 0.00 in0.0 mm 0.00 in0.0 mm 0.00 in0.0 mm
03:56 AM 27.0°F-2.8°C 21.9°F-5.6°C 81% 3.4 mph SW5.5 kmh SW 5.4 mph8.7 kmh 30.03 in1016.9 mb 0.00 in0.0 mm 0.00 in0.0 mm 0.00 in0.0 mm
03:51 AM 27.0°F-2.8°C 21.9°F-5.6°C 81% 3.6 mph SW5.8 kmh SW 5.4 mph8.7 kmh 30.03 in1016.9 mb 0.00 in0.0 mm 0.00 in0.0 mm 0.00 in0.0 mm
03:46 AM 27.0°F-2.8°C 21.9°F-5.6°C 81% 2.5 mph SW4.0 kmh SW 5.4 mph8.7 kmh 30.03 in1016.9 mb 0.00 in0.0 mm 0.00 in0.0 mm 0.00 in0.0 mm
03:41 AM 27.0°F-2.8°C 21.9°F-5.6°C 81% 3.6 mph SW5.8 kmh SW 7.4 mph11.9 kmh 30.03 in1016.9 mb 0.00 in0.0 mm 0.00 in0.0 mm 0.00 in0.0 mm
03:36 AM 27.0°F-2.8°C 21.6°F-5.8°C 80% 3.4 mph SSW5.5 kmh SSW 6.3 mph10.1 kmh 30.03 in1016.9 mb 0.00 in0.0 mm 0.00 in0.0 mm 0.00 in0.0 mm
03:31 AM 27.1°F-2.7°C 21.7°F-5.7°C 80% 2.7 mph SW4.3 kmh SW 7.4 mph11.9 kmh 30.04 in1017.3 mb 0.00 in0.0 mm 0.00 in0.0 mm 0.00 in0.0 mm
03:26 AM 27.1°F-2.7°C 21.6°F-5.8°C 79% 2.9 mph SSW4.7 kmh SSW 6.3 mph10.1 kmh 30.04 in1017.3 mb 0.00 in0.0 mm 0.00 in0.0 mm 0.00 in0.0 mm
03:21 AM 27.1°F-2.7°C 21.6°F-5.8°C 79% 3.4 mph S5.5 kmh S 7.4 mph11.9 kmh 30.04 in1017.3 mb 0.00 in0.0 mm 0.00 in0.0 mm 0.00 in0.0 mm
03:16 AM 27.1°F-2.7°C 21.6°F-5.8°C 79% 3.1 mph SSW5.0 kmh SSW 5.4 mph8.7 kmh 30.05 in1017.6 mb 0.00 in0.0 mm 0.00 in0.0 mm 0.00 in0.0 mm
03:11 AM 27.3°F-2.6°C 21.4°F-5.9°C 78% 2.5 mph SSW4.0 kmh SSW 4.3 mph6.9 kmh 30.05 in1017.6 mb 0.00 in0.0 mm 0.00 in0.0 mm 0.00 in0.0 mm
03:06 AM 27.5°F-2.5°C 21.6°F-5.8°C 78% 3.1 mph SSW5.0 kmh SSW 6.3 mph10.1 kmh 30.05 in1017.6 mb 0.00 in0.0 mm 0.00 in0.0 mm 0.00 in0.0 mm
03:01 AM 27.7°F-2.4°C 21.7°F-5.7°C 78% 2.7 mph SW4.3 kmh SW 5.4 mph8.7 kmh 30.06 in1017.9 mb 0.00 in0.0 mm 0.00 in0.0 mm 0.00 in0.0 mm
02:56 AM 27.9°F-2.3°C 21.6°F-5.8°C 77% 1.6 mph SSW2.6 kmh SSW 3.1 mph5.0 kmh 30.06 in1017.9 mb 0.00 in0.0 mm 0.00 in0.0 mm 0.00 in0.0 mm
02:51 AM 27.9°F-2.3°C 21.6°F-5.8°C 77% 2.5 mph SW4.0 kmh SW 5.4 mph8.7 kmh 30.06 in1017.9 mb 0.00 in0.0 mm 0.00 in0.0 mm 0.00 in0.0 mm
02:46 AM 28.0°F-2.2°C 21.7°F-5.7°C 77% 2.7 mph S4.3 kmh S 5.4 mph8.7 kmh 30.06 in1017.9 mb 0.00 in0.0 mm 0.00 in0.0 mm 0.00 in0.0 mm
02:41 AM 28.0°F-2.2°C 21.7°F-5.7°C 77% 2.5 mph SSW4.0 kmh SSW 6.3 mph10.1 kmh 30.06 in1017.9 mb 0.00 in0.0 mm 0.00 in0.0 mm 0.00 in0.0 mm
02:36 AM 28.0°F-2.2°C 21.4°F-5.9°C 76% 2.2 mph SW3.5 kmh SW 6.3 mph10.1 kmh 30.06 in1017.9 mb 0.00 in0.0 mm 0.00 in0.0 mm 0.00 in0.0 mm
02:31 AM 28.2°F-2.1°C 21.6°F-5.8°C 76% 3.1 mph SSW5.0 kmh SSW 5.4 mph8.7 kmh 30.06 in1017.9 mb 0.00 in0.0 mm 0.00 in0.0 mm 0.00 in0.0 mm
02:26 AM 28.2°F-2.1°C 21.6°F-5.8°C 76% 4.0 mph SSW6.4 kmh SSW 5.4 mph8.7 kmh 30.06 in1017.9 mb 0.00 in0.0 mm 0.00 in0.0 mm 0.00 in0.0 mm
02:21 AM 28.4°F-2.0°C 21.6°F-5.8°C 75% 2.2 mph SW3.5 kmh SW 5.4 mph8.7 kmh 30.06 in1017.9 mb 0.00 in0.0 mm 0.00 in0.0 mm 0.00 in0.0 mm
02:16 AM 28.6°F-1.9°C 21.7°F-5.7°C 75% 2.0 mph SSW3.2 kmh SSW 6.3 mph10.1 kmh 30.06 in1017.9 mb 0.00 in0.0 mm 0.00 in0.0 mm 0.00 in0.0 mm
02:11 AM 28.6°F-1.9°C 21.7°F-5.7°C 75% 2.9 mph SSW4.7 kmh SSW 5.4 mph8.7 kmh 30.06 in1017.9 mb 0.00 in0.0 mm 0.00 in0.0 mm 0.00 in0.0 mm
02:06 AM 28.8°F-1.8°C 21.9°F-5.6°C 75% 4.0 mph SW6.4 kmh SW 7.4 mph11.9 kmh 30.06 in1017.9 mb 0.00 in0.0 mm 0.00 in0.0 mm 0.00 in0.0 mm
02:01 AM 28.8°F-1.8°C 21.6°F-5.8°C 74% 3.4 mph SW5.5 kmh SW 7.4 mph11.9 kmh 30.06 in1017.9 mb 0.00 in0.0 mm 0.00 in0.0 mm 0.00 in0.0 mm
01:56 AM 28.9°F-1.7°C 21.7°F-5.7°C 74% 3.4 mph SW5.5 kmh SW 9.6 mph15.4 kmh 30.06 in1017.9 mb 0.00 in0.0 mm 0.00 in0.0 mm 0.00 in0.0 mm
01:51 AM 28.9°F-1.7°C 21.7°F-5.7°C 74% 3.4 mph SW5.5 kmh SW 6.3 mph10.1 kmh 30.06 in1017.9 mb 0.00 in0.0 mm 0.00 in0.0 mm 0.00 in0.0 mm
01:46 AM 28.9°F-1.7°C 21.7°F-5.7°C 74% 6.0 mph SW9.7 kmh SW 10.5 mph16.9 kmh 30.06 in1017.9 mb 0.00 in0.0 mm 0.00 in0.0 mm 0.00 in0.0 mm
01:41 AM 28.9°F-1.7°C 21.4°F-5.9°C 73% 4.0 mph SW6.4 kmh SW 7.4 mph11.9 kmh 30.06 in1017.9 mb 0.00 in0.0 mm 0.00 in0.0 mm 0.00 in0.0 mm
01:36 AM 29.1°F-1.6°C 21.6°F-5.8°C 73% 2.9 mph SW4.7 kmh SW 9.6 mph15.4 kmh 30.06 in1017.9 mb 0.00 in0.0 mm 0.00 in0.0 mm 0.00 in0.0 mm
01:31 AM 29.1°F-1.6°C 21.6°F-5.8°C 73% 5.1 mph SSW8.2 kmh SSW 7.4 mph11.9 kmh 30.06 in1017.9 mb 0.00 in0.0 mm 0.00 in0.0 mm 0.00 in0.0 mm
01:26 AM 29.1°F-1.6°C 21.6°F-5.8°C 73% 2.5 mph W4.0 kmh W 6.3 mph10.1 kmh 30.06 in1017.9 mb 0.00 in0.0 mm 0.00 in0.0 mm 0.00 in0.0 mm
01:21 AM 29.3°F-1.5°C 21.7°F-5.7°C 73% 4.7 mph SSW7.6 kmh SSW 9.6 mph15.4 kmh 30.07 in1018.3 mb 0.00 in0.0 mm 0.00 in0.0 mm 0.00 in0.0 mm
01:16 AM 29.5°F-1.4°C 21.9°F-5.6°C 73% 4.5 mph SSW7.2 kmh SSW 7.4 mph11.9 kmh 30.07 in1018.3 mb 0.00 in0.0 mm 0.00 in0.0 mm 0.00 in0.0 mm
01:11 AM 29.5°F-1.4°C 21.6°F-5.8°C 72% 5.4 mph SW8.7 kmh SW 9.6 mph15.4 kmh 30.07 in1018.3 mb 0.00 in0.0 mm 0.00 in0.0 mm 0.00 in0.0 mm
01:06 AM 29.5°F-1.4°C 21.9°F-5.6°C 73% 3.8 mph SSW6.1 kmh SSW 10.5 mph16.9 kmh 30.08 in1018.6 mb 0.00 in0.0 mm 0.00 in0.0 mm 0.00 in0.0 mm
01:01 AM 29.3°F-1.5°C 21.7°F-5.7°C 73% 5.4 mph SW8.7 kmh SW 8.5 mph13.7 kmh 30.08 in1018.6 mb 0.00 in0.0 mm 0.00 in0.0 mm 0.00 in0.0 mm
12:56 AM 29.3°F-1.5°C 21.7°F-5.7°C 73% 4.9 mph SW7.9 kmh SW 10.5 mph16.9 kmh 30.08 in1018.6 mb 0.00 in0.0 mm 0.00 in0.0 mm 0.00 in0.0 mm
12:51 AM 29.3°F-1.5°C 21.4°F-5.9°C 72% 5.1 mph SW8.2 kmh SW 9.6 mph15.4 kmh 30.09 in1019.0 mb 0.00 in0.0 mm 0.00 in0.0 mm 0.00 in0.0 mm
12:46 AM 29.3°F-1.5°C 21.4°F-5.9°C 72% 5.8 mph SW9.3 kmh SW 10.5 mph16.9 kmh 30.08 in1018.6 mb 0.00 in0.0 mm 0.00 in0.0 mm 0.00 in0.0 mm
12:41 AM 29.3°F-1.5°C 21.4°F-5.9°C 72% 5.6 mph SW9.0 kmh SW 9.6 mph15.4 kmh 30.09 in1019.0 mb 0.00 in0.0 mm 0.00 in0.0 mm 0.00 in0.0 mm
12:36 AM 29.3°F-1.5°C 21.4°F-5.9°C 72% 4.5 mph SSW7.2 kmh SSW 8.5 mph13.7 kmh 30.09 in1019.0 mb 0.00 in0.0 mm 0.00 in0.0 mm 0.00 in0.0 mm
12:31 AM 29.3°F-1.5°C 21.4°F-5.9°C 72% 6.7 mph SW10.8 kmh SW 9.6 mph15.4 kmh 30.09 in1019.0 mb 0.00 in0.0 mm 0.00 in0.0 mm 0.00 in0.0 mm
12:26 AM 29.3°F-1.5°C 21.4°F-5.9°C 72% 4.7 mph SSW7.6 kmh SSW 9.6 mph15.4 kmh 30.09 in1019.0 mb 0.00 in0.0 mm 0.00 in0.0 mm 0.00 in0.0 mm
12:21 AM 29.3°F-1.5°C 21.0°F-6.1°C 71% 5.1 mph SW8.2 kmh SW 10.5 mph16.9 kmh 30.09 in1019.0 mb 0.00 in0.0 mm 0.00 in0.0 mm 0.00 in0.0 mm
12:16 AM 29.3°F-1.5°C 21.0°F-6.1°C 71% 4.5 mph SW7.2 kmh SW 7.4 mph11.9 kmh 30.09 in1019.0 mb 0.00 in0.0 mm 0.00 in0.0 mm 0.00 in0.0 mm
12:11 AM 29.5°F-1.4°C 21.2°F-6.0°C 71% 6.3 mph SW10.1 kmh SW 8.5 mph13.7 kmh 30.10 in1019.3 mb 0.00 in0.0 mm 0.00 in0.0 mm 0.00 in0.0 mm
12:06 AM 29.5°F-1.4°C 21.2°F-6.0°C 71% 5.8 mph SW9.3 kmh SW 11.6 mph18.7 kmh 30.10 in1019.3 mb 0.00 in0.0 mm 0.00 in0.0 mm 0.00 in0.0 mm
12:01 AM 29.5°F-1.4°C 21.2°F-6.0°C 71% 6.3 mph SW10.1 kmh SW 12.8 mph20.6 kmh 30.11 in1019.6 mb 0.00 in0.0 mm 0.00 in0.0 mm 0.00 in0.0 mm